createdAt,value
2023-04-03T00:01:41.597Z,4.90
2023-04-03T00:04:10.701Z,4.90
2023-04-03T00:06:39.175Z,5.00
2023-04-03T00:09:09.444Z,5.00
2023-04-03T00:11:39.434Z,5.00
2023-04-03T00:14:11.256Z,5.00
2023-04-03T00:16:40.253Z,5.00
2023-04-03T00:29:19.606Z,4.90
2023-04-03T02:18:07.779Z,4.20
2023-04-03T02:20:37.853Z,4.20
2023-04-03T02:23:08.498Z,4.20
2023-04-03T02:25:38.900Z,4.20
2023-04-03T02:28:08.061Z,4.10
2023-04-03T02:30:37.526Z,4.10
2023-04-03T02:33:08.691Z,4.10
2023-04-03T02:35:38.264Z,4.10
2023-04-03T02:38:06.668Z,4.10
2023-04-03T02:40:36.728Z,4.00
2023-04-03T02:43:05.422Z,4.00
2023-04-03T02:45:35.031Z,4.00
2023-04-03T02:48:04.364Z,3.90
2023-04-03T02:50:35.003Z,3.90
2023-04-03T02:53:04.629Z,3.90
2023-04-03T02:55:33.716Z,3.80
2023-04-03T02:58:02.038Z,3.80
2023-04-03T03:00:31.012Z,3.80
2023-04-03T03:02:59.909Z,3.70
2023-04-03T03:05:28.962Z,3.70
2023-04-03T03:08:00.321Z,3.60
2023-04-03T03:10:29.629Z,3.60
2023-04-03T03:12:58.393Z,3.60
2023-04-03T03:15:27.941Z,3.50
2023-04-03T03:17:57.155Z,3.50
2023-04-03T03:20:26.228Z,3.50
2023-04-03T03:22:55.944Z,3.40
2023-04-03T03:25:27.670Z,3.40
2023-04-03T03:27:58.630Z,3.40
2023-04-03T03:30:29.086Z,3.40
2023-04-03T03:33:04.283Z,3.40
2023-04-03T03:35:38.387Z,3.30
2023-04-03T03:38:10.808Z,3.30
2023-04-03T03:40:42.807Z,3.30
2023-04-03T03:43:12.194Z,3.30
2023-04-03T03:45:41.258Z,3.20
2023-04-03T03:48:11.958Z,3.20
2023-04-03T03:50:41.039Z,3.20
2023-04-03T03:53:10.185Z,3.20
2023-04-03T03:55:39.654Z,3.20
2023-04-03T03:58:11.498Z,3.20
2023-04-03T04:00:40.529Z,3.20
2023-04-03T04:03:09.778Z,3.20
2023-04-03T04:05:40.109Z,3.10
2023-04-03T04:08:09.595Z,3.10
2023-04-03T04:10:40.971Z,3.00
2023-04-03T04:13:11.912Z,2.90
2023-04-03T04:15:41.850Z,3.00
2023-04-03T04:18:10.887Z,2.90
2023-04-03T04:20:39.644Z,2.90
2023-04-03T04:23:08.122Z,2.90
2023-04-03T04:25:38.016Z,2.90
2023-04-03T04:28:09.142Z,3.00
2023-04-03T04:30:40.533Z,3.00
2023-04-03T04:33:09.679Z,3.00
2023-04-03T04:35:39.082Z,3.10
2023-04-03T04:38:09.706Z,3.10
2023-04-03T04:40:39.298Z,3.20
2023-04-03T04:43:10.084Z,3.20
2023-04-03T04:45:40.906Z,3.20
2023-04-03T04:48:10.670Z,3.30
2023-04-03T04:50:39.525Z,3.30
2023-04-03T04:53:08.428Z,3.40
2023-04-03T04:55:38.594Z,3.50
2023-04-03T04:58:07.288Z,3.50
2023-04-03T05:00:39.856Z,3.50
2023-04-03T05:03:08.983Z,3.50
2023-04-03T05:05:39.005Z,3.60
2023-04-03T05:08:10.644Z,3.50
2023-04-03T05:10:41.879Z,3.50
2023-04-03T05:13:11.036Z,3.50
2023-04-03T05:15:42.287Z,3.60
2023-04-03T05:18:11.138Z,3.60
2023-04-03T05:20:40.259Z,3.70
2023-04-03T05:23:09.665Z,3.70
2023-04-03T05:25:40.345Z,3.70
2023-04-03T05:28:10.853Z,3.70
2023-04-03T05:30:42.593Z,3.80
2023-04-03T05:33:12.609Z,3.80
2023-04-03T05:35:53.124Z,3.90
2023-04-03T05:38:27.350Z,3.90
2023-04-03T05:40:58.391Z,3.90
2023-04-03T05:43:27.432Z,4.00
2023-04-03T05:45:59.349Z,4.00
2023-04-03T05:48:30.027Z,4.00
2023-04-03T05:51:00.477Z,4.00
2023-04-03T05:53:33.842Z,3.90
2023-04-03T05:56:05.770Z,3.80
2023-04-03T05:58:41.028Z,3.80
2023-04-03T06:01:12.121Z,3.80
2023-04-03T06:03:41.997Z,3.80
2023-04-03T06:06:16.560Z,3.80
2023-04-03T06:08:46.290Z,3.90
2023-04-03T06:11:16.329Z,4.00
2023-04-03T06:13:46.737Z,4.10
2023-04-03T06:16:19.254Z,4.20
2023-04-03T06:18:48.599Z,4.30
2023-04-03T06:21:17.889Z,4.40
2023-04-03T06:23:47.079Z,4.40
2023-04-03T06:26:17.160Z,4.40
2023-04-03T06:28:46.652Z,4.50
2023-04-03T06:31:18.101Z,4.60
2023-04-03T06:33:47.239Z,4.70
2023-04-03T06:36:21.035Z,4.70
2023-04-03T06:38:51.617Z,4.70
2023-04-03T06:41:20.752Z,4.80
2023-04-03T06:43:50.794Z,4.70
2023-04-03T06:46:23.484Z,4.80
2023-04-03T06:48:53.161Z,4.80
2023-04-03T06:51:28.111Z,4.70
2023-04-03T06:53:59.987Z,4.60
2023-04-03T06:56:29.865Z,4.70
2023-04-03T06:59:01.108Z,4.60
2023-04-03T07:01:33.232Z,4.70
2023-04-03T07:04:04.314Z,4.70
2023-04-03T07:06:35.783Z,4.70
2023-04-03T07:09:09.346Z,4.70
2023-04-03T07:11:39.004Z,4.70
2023-04-03T07:14:09.272Z,4.70
2023-04-03T07:16:41.843Z,4.70
2023-04-03T07:19:11.367Z,4.80
2023-04-03T07:21:43.079Z,4.80
2023-04-03T07:24:15.922Z,4.90
2023-04-03T07:26:46.221Z,5.00
2023-04-03T07:29:15.858Z,5.10
2023-04-03T07:31:46.937Z,5.20
2023-04-03T07:34:16.920Z,5.30
2023-04-03T07:36:46.249Z,5.50
2023-04-03T07:39:16.020Z,5.60
2023-04-03T07:41:45.436Z,5.70
2023-04-03T07:44:14.159Z,5.70
2023-04-03T07:46:43.748Z,5.70
2023-04-03T07:49:14.282Z,5.70
2023-04-03T07:51:43.063Z,5.80
2023-04-03T07:54:11.980Z,5.80
2023-04-03T07:56:41.347Z,5.90
2023-04-03T07:59:10.810Z,5.90
2023-04-03T08:01:39.895Z,6.10
2023-04-03T08:04:08.895Z,6.10
2023-04-03T08:06:46.381Z,6.00
2023-04-03T08:09:17.221Z,6.00
2023-04-03T08:11:46.889Z,6.10
2023-04-03T08:14:19.337Z,6.00
2023-04-03T08:16:50.213Z,6.00
2023-04-03T08:19:25.987Z,5.90
2023-04-03T08:21:57.646Z,5.90
2023-04-03T08:24:26.982Z,5.90
2023-04-03T08:26:56.840Z,5.90
2023-04-03T08:29:27.575Z,6.00
2023-04-03T08:31:57.638Z,5.90
2023-04-03T08:34:26.260Z,5.80
2023-04-03T08:36:57.304Z,5.70
2023-04-03T08:39:25.860Z,5.60
2023-04-03T08:42:03.074Z,5.70
2023-04-03T08:44:49.081Z,5.80
2023-04-03T08:47:28.205Z,5.90
2023-04-03T08:50:02.113Z,5.90
2023-04-03T08:52:40.009Z,5.90
2023-04-03T08:55:23.616Z,6.00
2023-04-03T08:58:03.943Z,6.00
2023-04-03T09:00:50.115Z,6.00
2023-04-03T09:03:22.033Z,6.00
2023-04-03T09:05:58.382Z,6.00
2023-04-03T09:08:32.565Z,6.00
2023-04-03T09:11:14.917Z,6.00
2023-04-03T09:13:55.469Z,6.10
2023-04-03T09:16:38.531Z,6.30
2023-04-03T09:19:22.993Z,6.40
2023-04-03T09:21:52.754Z,6.60
2023-04-03T09:24:26.890Z,6.80
2023-04-03T09:27:03.945Z,6.90
2023-04-03T09:29:33.397Z,7.00
2023-04-03T09:32:16.992Z,7.00
2023-04-03T09:34:47.879Z,7.10
2023-04-03T09:37:39.911Z,7.10
2023-04-03T09:40:40.029Z,7.20
2023-04-03T09:43:30.688Z,7.40
2023-04-03T09:46:28.025Z,7.50
2023-04-03T09:49:08.112Z,7.40
2023-04-03T09:51:39.671Z,7.30
2023-04-03T09:54:41.285Z,7.40
2023-04-03T09:57:15.234Z,7.50
2023-04-03T09:59:50.567Z,7.60
2023-04-03T10:02:41.267Z,7.80
2023-04-03T10:05:32.749Z,8.00
2023-04-03T10:08:22.140Z,8.20
2023-04-03T10:11:12.003Z,8.30
2023-04-03T10:14:00.884Z,8.40
2023-04-03T10:16:40.482Z,8.30
2023-04-03T10:19:36.815Z,8.30
2023-04-03T10:22:21.211Z,8.40
2023-04-03T10:25:05.373Z,8.50
2023-04-03T10:27:49.207Z,8.80
2023-04-03T10:30:41.997Z,8.80
2023-04-03T10:33:42.719Z,8.80
2023-04-03T10:36:24.367Z,8.60
2023-04-03T10:39:01.669Z,8.40
2023-04-03T10:41:49.172Z,8.50
2023-04-03T10:44:34.919Z,8.40
2023-04-03T10:47:14.273Z,8.30
2023-04-03T10:49:59.973Z,8.30
2023-04-03T10:52:41.899Z,8.20
2023-04-03T10:55:33.313Z,8.40
2023-04-03T10:58:04.491Z,8.40
2023-04-03T11:00:44.734Z,8.30
2023-04-03T11:03:24.425Z,8.30
2023-04-03T11:05:58.189Z,8.10
2023-04-03T11:08:35.332Z,7.90
2023-04-03T11:11:10.897Z,8.00
2023-04-03T11:13:45.937Z,8.20
2023-04-03T11:16:25.550Z,8.40
2023-04-03T11:19:05.272Z,8.60
2023-04-03T11:21:43.630Z,8.70
2023-04-03T11:24:24.534Z,8.70
2023-04-03T11:26:56.466Z,8.70
2023-04-03T11:29:35.371Z,8.60
2023-04-03T11:32:39.135Z,8.30
2023-04-03T11:35:11.722Z,8.10
2023-04-03T11:37:47.325Z,8.00
2023-04-03T11:40:28.569Z,7.90
2023-04-03T11:43:08.854Z,7.90
2023-04-03T11:45:56.915Z,8.00
2023-04-03T11:48:57.405Z,8.10
2023-04-03T11:51:54.658Z,8.20
2023-04-03T11:54:54.089Z,8.20
2023-04-03T11:58:07.365Z,8.10
2023-04-03T12:01:03.074Z,7.80
2023-04-03T12:04:07.244Z,7.60
2023-04-03T12:07:20.457Z,7.60
2023-04-03T12:10:31.621Z,7.70
2023-04-03T12:13:08.485Z,7.90
2023-04-03T12:15:58.301Z,8.10
2023-04-03T12:19:06.258Z,8.30
2023-04-03T12:22:14.378Z,8.40
2023-04-03T12:24:48.669Z,8.30
2023-04-03T12:27:42.157Z,8.30
2023-04-03T12:30:24.566Z,8.20
2023-04-03T12:33:31.449Z,8.10
2023-04-03T12:36:13.820Z,8.00
2023-04-03T12:39:14.024Z,7.90
2023-04-03T12:41:59.889Z,8.10
2023-04-03T12:44:52.572Z,8.30
2023-04-03T12:47:37.962Z,8.40
2023-04-03T12:50:28.720Z,8.60
2023-04-03T12:53:04.108Z,8.70
2023-04-03T12:55:33.662Z,8.80
2023-04-03T12:58:26.615Z,8.70
2023-04-03T13:01:05.361Z,8.60
2023-04-03T13:03:34.007Z,8.50
2023-04-03T13:06:06.171Z,8.40
2023-04-03T13:08:36.253Z,8.40
2023-04-03T13:11:13.204Z,8.50
2023-04-03T13:13:59.096Z,8.40
2023-04-03T13:16:30.553Z,8.20
2023-04-03T13:19:01.243Z,8.20
2023-04-03T13:21:35.356Z,8.20
2023-04-03T13:24:15.502Z,8.20
2023-04-03T13:26:45.964Z,8.20
2023-04-03T13:29:31.479Z,8.10
2023-04-03T13:32:03.498Z,8.10
2023-04-03T13:34:47.068Z,8.30
2023-04-03T13:37:30.010Z,8.20
2023-04-03T13:40:05.037Z,8.10
2023-04-03T13:42:37.529Z,8.10
2023-04-03T13:45:24.976Z,8.00
2023-04-03T13:48:20.236Z,7.90
2023-04-03T13:51:05.331Z,8.00
2023-04-03T13:53:43.742Z,8.10
2023-04-03T13:56:25.053Z,8.00
2023-04-03T13:59:04.181Z,8.10
2023-04-03T14:01:46.295Z,8.10
2023-04-03T14:04:22.675Z,8.00
2023-04-03T14:06:52.526Z,8.00
2023-04-03T14:09:24.060Z,8.10
2023-04-03T14:11:56.706Z,8.40
2023-04-03T14:14:37.533Z,8.80
2023-04-03T14:17:25.068Z,9.10
2023-04-03T14:19:58.408Z,9.40
2023-04-03T14:22:32.066Z,9.60
2023-04-03T14:25:02.466Z,9.40
2023-04-03T14:27:37.089Z,9.40
2023-04-03T14:30:14.521Z,9.20
2023-04-03T14:32:46.421Z,8.90
2023-04-03T14:35:16.233Z,8.80
2023-04-03T14:37:46.541Z,8.60
2023-04-03T14:40:19.416Z,8.50
2023-04-03T14:42:50.621Z,8.40
2023-04-03T14:45:20.931Z,8.40
2023-04-03T14:47:54.142Z,8.40
2023-04-03T14:50:27.335Z,8.50
2023-04-03T14:52:59.692Z,8.70
2023-04-03T14:55:29.937Z,9.00
2023-04-03T14:57:58.265Z,9.00
2023-04-03T15:00:28.206Z,8.90
2023-04-03T15:02:58.644Z,8.80
2023-04-03T15:05:27.875Z,8.60
2023-04-03T15:08:01.713Z,8.50
2023-04-03T15:10:33.080Z,8.50
2023-04-03T15:13:04.637Z,8.50
2023-04-03T15:15:35.082Z,8.50
2023-04-03T15:18:07.561Z,8.50
2023-04-03T15:20:36.943Z,8.60
2023-04-03T15:23:07.232Z,8.60
2023-04-03T15:25:37.504Z,8.50
2023-04-03T15:28:06.845Z,8.40
2023-04-03T15:30:41.569Z,8.40
2023-04-03T15:33:12.127Z,8.30
2023-04-03T15:35:40.632Z,8.30
2023-04-03T15:38:10.684Z,8.30
2023-04-03T15:40:40.020Z,8.40
2023-04-03T15:43:09.747Z,8.30
2023-04-03T15:45:40.573Z,8.30
2023-04-03T15:48:12.190Z,8.40
2023-04-03T15:50:41.941Z,8.40
2023-04-03T15:53:11.763Z,8.50
2023-04-03T15:55:42.590Z,8.60
2023-04-03T15:58:11.974Z,8.70
2023-04-03T16:00:42.621Z,8.80
2023-04-03T16:03:18.495Z,8.90
2023-04-03T16:05:47.885Z,8.90
2023-04-03T16:08:18.825Z,8.80
2023-04-03T16:10:48.380Z,8.70
2023-04-03T16:13:18.976Z,8.60
2023-04-03T16:15:48.321Z,8.40
2023-04-03T16:18:19.814Z,8.40
2023-04-03T16:20:49.347Z,8.30
2023-04-03T16:25:48.008Z,8.10
2023-04-03T16:28:17.260Z,8.10
2023-04-03T16:30:50.453Z,8.10
2023-04-03T16:33:22.512Z,8.10
2023-04-03T16:35:51.782Z,8.10
2023-04-03T16:38:23.280Z,8.00
2023-04-03T16:40:53.670Z,7.80
2023-04-03T16:43:22.919Z,7.70
2023-04-03T16:45:51.125Z,7.60
2023-04-03T16:48:21.797Z,7.50
2023-04-03T16:50:53.266Z,7.50
2023-04-03T16:53:22.690Z,7.40
2023-04-03T16:55:51.944Z,7.40
2023-04-03T16:58:22.606Z,7.40
2023-04-03T17:00:55.152Z,7.40
2023-04-03T17:03:27.416Z,7.30
2023-04-03T17:05:56.026Z,7.30
2023-04-03T17:08:25.936Z,7.30
2023-04-03T17:10:56.374Z,7.30
2023-04-03T17:13:34.104Z,7.30
2023-04-03T17:16:06.810Z,7.20
2023-04-03T17:18:39.398Z,7.20
2023-04-03T17:21:09.001Z,7.20
2023-04-03T17:23:43.350Z,7.20
2023-04-03T17:26:14.998Z,7.20
2023-04-03T17:28:46.846Z,7.10
2023-04-03T17:31:16.917Z,7.10
2023-04-03T17:33:50.439Z,7.10
2023-04-03T17:36:20.485Z,7.00
2023-04-03T17:38:51.949Z,6.90
2023-04-03T17:41:22.896Z,6.90
2023-04-03T17:43:53.317Z,6.90
2023-04-03T17:46:22.561Z,6.80
2023-04-03T17:48:54.079Z,6.80
2023-04-03T17:51:26.131Z,6.70
2023-04-03T17:53:56.646Z,6.60
2023-04-03T17:56:28.270Z,6.60
2023-04-03T17:58:58.615Z,6.50
2023-04-03T18:01:33.290Z,6.50
2023-04-03T18:04:05.902Z,6.50
2023-04-03T18:06:40.156Z,6.40
2023-04-03T18:09:16.053Z,6.40
2023-04-03T18:11:47.476Z,6.30
2023-04-03T18:14:21.510Z,6.20
2023-04-03T18:16:51.345Z,6.10
2023-04-03T18:19:23.748Z,6.00
2023-04-03T18:21:56.704Z,5.90
2023-04-03T18:24:28.170Z,5.90
2023-04-03T18:27:03.058Z,5.80
2023-04-03T18:29:35.556Z,5.80
2023-04-03T18:32:07.892Z,5.80
2023-04-03T18:34:38.236Z,5.80
2023-04-03T20:40:28.176Z,3.70
2023-04-03T20:42:57.615Z,3.60
2023-04-03T20:45:27.837Z,3.60
2023-04-03T20:47:57.993Z,3.50
2023-04-03T20:50:29.513Z,3.50
2023-04-03T20:52:59.476Z,3.50
2023-04-03T20:55:30.913Z,3.50
2023-04-03T20:58:02.398Z,3.40
2023-04-03T21:00:33.941Z,3.40
2023-04-03T21:03:04.955Z,3.30
2023-04-03T21:05:37.018Z,3.30
2023-04-03T21:09:01.512Z,3.30
2023-04-03T21:12:26.229Z,3.30
2023-04-03T21:15:47.722Z,3.20
2023-04-03T21:18:48.225Z,3.20
2023-04-03T21:21:23.200Z,3.20
2023-04-03T21:23:53.627Z,3.20
2023-04-03T21:26:23.914Z,3.20
2023-04-03T21:28:53.823Z,3.10
2023-04-03T21:31:23.482Z,3.10
2023-04-03T21:33:53.772Z,3.10
2023-04-03T21:36:23.098Z,3.10
2023-04-03T21:38:51.626Z,3.00
2023-04-03T21:41:21.693Z,2.90
2023-04-03T21:43:50.259Z,2.90
2023-04-03T21:46:20.572Z,2.90
2023-04-03T21:48:49.784Z,2.90
2023-04-03T21:51:20.281Z,2.90
2023-04-03T21:53:53.339Z,2.90
2023-04-03T21:56:24.832Z,2.80
2023-04-03T21:58:53.640Z,2.70
2023-04-03T22:01:22.375Z,2.70
2023-04-03T22:03:52.038Z,2.60
2023-04-03T22:06:22.029Z,2.70
2023-04-03T22:08:50.904Z,2.70
2023-04-03T22:11:19.988Z,2.70
2023-04-03T22:13:52.548Z,2.70
2023-04-03T22:16:23.835Z,2.60
2023-04-03T22:18:53.108Z,2.60
2023-04-03T22:21:24.056Z,2.60
2023-04-03T22:23:52.657Z,2.60
2023-04-03T22:26:21.846Z,2.50
2023-04-03T22:28:50.747Z,2.50
2023-04-03T22:31:21.563Z,2.50
2023-04-03T22:33:50.451Z,2.50
2023-04-03T22:36:19.309Z,2.50
2023-04-03T22:38:49.416Z,2.40
2023-04-03T22:41:18.675Z,2.40
2023-04-03T22:43:48.213Z,2.40
2023-04-03T22:46:17.245Z,2.40
2023-04-03T22:48:46.583Z,2.30
2023-04-03T22:51:16.044Z,2.30
2023-04-03T22:53:44.397Z,2.30
2023-04-03T22:56:15.348Z,2.30
2023-04-03T22:58:44.951Z,2.30
2023-04-03T23:01:16.535Z,2.20
2023-04-03T23:03:45.204Z,2.20
2023-04-03T23:06:14.761Z,2.20
2023-04-03T23:08:45.136Z,2.20
2023-04-03T23:11:15.362Z,2.10
2023-04-03T23:13:45.030Z,2.20
2023-04-03T23:16:15.146Z,2.10
2023-04-03T23:18:45.137Z,2.10
2023-04-03T23:21:14.429Z,2.10
2023-04-03T23:23:43.531Z,2.10
2023-04-03T23:26:14.258Z,2.00
2023-04-03T23:28:44.472Z,2.00
2023-04-03T23:31:13.050Z,2.00
2023-04-03T23:33:43.945Z,2.00
2023-04-03T23:36:16.188Z,2.00
2023-04-03T23:38:45.060Z,1.90
2023-04-03T23:41:16.299Z,1.90
2023-04-03T23:43:46.830Z,1.80
2023-04-03T23:46:15.882Z,1.80
2023-04-03T23:48:45.351Z,1.70
2023-04-03T23:51:14.544Z,2.10
2023-04-03T23:53:43.574Z,1.70
2023-04-03T23:56:13.397Z,1.70
2023-04-03T23:58:44.422Z,1.70
